sensor_id;sensor_type;location;lat;lon;timestamp;P1;durP1;ratioP1;P2;durP2;ratioP2
1569;SDS011;778;50.120;8.698;2022-10-22T03:02:24;3.30;;;2.23;;
1569;SDS011;778;50.120;8.698;2022-10-22T03:04:52;12.20;;;2.47;;
1569;SDS011;778;50.120;8.698;2022-10-22T03:07:20;3.17;;;2.20;;
1569;SDS011;778;50.120;8.698;2022-10-22T03:09:49;2.10;;;1.83;;
1569;SDS011;778;50.120;8.698;2022-10-22T03:12:17;1.90;;;1.70;;
1569;SDS011;778;50.120;8.698;2022-10-22T03:14:45;2.67;;;2.00;;
1569;SDS011;778;50.120;8.698;2022-10-22T03:17:14;1.93;;;1.73;;
1569;SDS011;778;50.120;8.698;2022-10-22T03:19:44;2.27;;;2.07;;
1569;SDS011;778;50.120;8.698;2022-10-22T03:22:12;3.90;;;1.87;;
1569;SDS011;778;50.120;8.698;2022-10-22T03:24:45;6.27;;;2.50;;
1569;SDS011;778;50.120;8.698;2022-10-22T03:27:17;2.63;;;1.87;;
1569;SDS011;778;50.120;8.698;2022-10-22T03:29:49;2.27;;;2.17;;
1569;SDS011;778;50.120;8.698;2022-10-22T03:32:19;3.20;;;2.10;;
1569;SDS011;778;50.120;8.698;2022-10-22T03:34:48;3.60;;;1.60;;
1569;SDS011;778;50.120;8.698;2022-10-22T03:37:17;6.70;;;2.07;;
1569;SDS011;778;50.120;8.698;2022-10-22T03:39:46;4.30;;;1.90;;
1569;SDS011;778;50.120;8.698;2022-10-22T03:42:14;3.57;;;1.40;;
1569;SDS011;778;50.120;8.698;2022-10-22T03:44:43;1.87;;;1.40;;
1569;SDS011;778;50.120;8.698;2022-10-22T03:47:12;3.87;;;1.60;;
1569;SDS011;778;50.120;8.698;2022-10-22T03:49:40;6.30;;;2.50;;
1569;SDS011;778;50.120;8.698;2022-10-22T03:52:10;2.30;;;2.10;;
1569;SDS011;778;50.120;8.698;2022-10-22T03:54:41;9.20;;;2.90;;
1569;SDS011;778;50.120;8.698;2022-10-22T03:57:10;4.07;;;2.60;;
1569;SDS011;778;50.120;8.698;2022-10-22T03:59:39;3.77;;;2.20;;
1569;SDS011;778;50.120;8.698;2022-10-22T04:02:10;2.73;;;1.90;;
1569;SDS011;778;50.120;8.698;2022-10-22T04:04:40;3.03;;;1.97;;
1569;SDS011;778;50.120;8.698;2022-10-22T04:07:09;2.53;;;1.70;;
1569;SDS011;778;50.120;8.698;2022-10-22T04:09:38;3.43;;;2.07;;
1569;SDS011;778;50.120;8.698;2022-10-22T04:12:06;5.60;;;2.30;;
1569;SDS011;778;50.120;8.698;2022-10-22T04:14:35;3.27;;;2.00;;
1569;SDS011;778;50.120;8.698;2022-10-22T04:17:03;4.10;;;1.73;;
1569;SDS011;778;50.120;8.698;2022-10-22T04:19:32;1.70;;;1.37;;
1569;SDS011;778;50.120;8.698;2022-10-22T04:22:01;4.50;;;2.10;;
1569;SDS011;778;50.120;8.698;2022-10-22T04:24:31;2.30;;;1.40;;
1569;SDS011;778;50.120;8.698;2022-10-22T04:26:59;1.80;;;1.70;;
1569;SDS011;778;50.120;8.698;2022-10-22T04:29:27;3.90;;;1.90;;
1569;SDS011;778;50.120;8.698;2022-10-22T04:31:56;3.70;;;1.60;;
1569;SDS011;778;50.120;8.698;2022-10-22T04:34:25;2.13;;;1.63;;
1569;SDS011;778;50.120;8.698;2022-10-22T04:36:55;5.00;;;2.10;;
1569;SDS011;778;50.120;8.698;2022-10-22T04:39:23;3.00;;;1.60;;
1569;SDS011;778;50.120;8.698;2022-10-22T04:41:53;2.33;;;1.90;;
1569;SDS011;778;50.120;8.698;2022-10-22T04:44:21;3.33;;;1.40;;
1569;SDS011;778;50.120;8.698;2022-10-22T04:46:50;8.53;;;1.97;;
1569;SDS011;778;50.120;8.698;2022-10-22T04:49:18;3.33;;;1.70;;
1569;SDS011;778;50.120;8.698;2022-10-22T04:51:47;2.63;;;2.03;;
1569;SDS011;778;50.120;8.698;2022-10-22T04:54:15;4.47;;;1.50;;
1569;SDS011;778;50.120;8.698;2022-10-22T04:56:43;2.37;;;1.63;;
1569;SDS011;778;50.120;8.698;2022-10-22T04:59:13;3.07;;;1.73;;
1569;SDS011;778;50.120;8.698;2022-10-22T05:01:42;2.23;;;1.60;;
1569;SDS011;778;50.120;8.698;2022-10-22T05:04:12;1.70;;;1.60;;
1569;SDS011;778;50.120;8.698;2022-10-22T05:06:42;2.37;;;1.67;;
1569;SDS011;778;50.120;8.698;2022-10-22T05:09:12;2.20;;;1.73;;
1569;SDS011;778;50.120;8.698;2022-10-22T05:11:43;5.80;;;1.60;;
1569;SDS011;778;50.120;8.698;2022-10-22T05:14:16;8.53;;;2.53;;
1569;SDS011;778;50.120;8.698;2022-10-22T05:16:47;4.10;;;1.77;;
1569;SDS011;778;50.120;8.698;2022-10-22T05:19:17;5.20;;;1.60;;
1569;SDS011;778;50.120;8.698;2022-10-22T05:21:49;3.83;;;1.60;;
1569;SDS011;778;50.120;8.698;2022-10-22T05:24:18;1.90;;;1.80;;
1569;SDS011;778;50.120;8.698;2022-10-22T05:26:47;5.53;;;1.60;;
1569;SDS011;778;50.120;8.698;2022-10-22T05:29:18;5.73;;;2.83;;
1569;SDS011;778;50.120;8.698;2022-10-22T05:31:46;4.13;;;1.40;;
1569;SDS011;778;50.120;8.698;2022-10-22T05:34:15;2.10;;;1.70;;
1569;SDS011;778;50.120;8.698;2022-10-22T05:36:44;1.90;;;1.50;;
1569;SDS011;778;50.120;8.698;2022-10-22T05:39:12;3.57;;;1.87;;
1569;SDS011;778;50.120;8.698;2022-10-22T05:41:41;8.70;;;1.60;;
1569;SDS011;778;50.120;8.698;2022-10-22T05:44:09;2.00;;;1.87;;
1569;SDS011;778;50.120;8.698;2022-10-22T05:46:40;2.30;;;1.83;;
1569;SDS011;778;50.120;8.698;2022-10-22T05:49:11;4.10;;;1.93;;
1569;SDS011;778;50.120;8.698;2022-10-22T05:51:42;5.43;;;1.80;;
1569;SDS011;778;50.120;8.698;2022-10-22T05:54:14;2.87;;;1.47;;
1569;SDS011;778;50.120;8.698;2022-10-22T05:56:45;1.40;;;1.17;;
1569;SDS011;778;50.120;8.698;2022-10-22T05:59:13;4.00;;;2.00;;
1569;SDS011;778;50.120;8.698;2022-10-22T06:01:43;3.17;;;1.63;;
1569;SDS011;778;50.120;8.698;2022-10-22T06:04:12;1.87;;;1.30;;
1569;SDS011;778;50.120;8.698;2022-10-22T06:06:42;1.30;;;1.20;;
1569;SDS011;778;50.120;8.698;2022-10-22T06:09:13;2.87;;;1.33;;
1569;SDS011;778;50.120;8.698;2022-10-22T06:11:45;5.63;;;1.93;;
1569;SDS011;778;50.120;8.698;2022-10-22T06:14:14;2.93;;;2.13;;
1569;SDS011;778;50.120;8.698;2022-10-22T06:16:45;2.03;;;1.33;;
1569;SDS011;778;50.120;8.698;2022-10-22T06:19:14;3.77;;;1.67;;
1569;SDS011;778;50.120;8.698;2022-10-22T06:21:45;3.37;;;1.93;;
1569;SDS011;778;50.120;8.698;2022-10-22T06:24:14;4.00;;;1.63;;
1569;SDS011;778;50.120;8.698;2022-10-22T06:26:42;1.67;;;1.57;;
1569;SDS011;778;50.120;8.698;2022-10-22T06:29:11;3.83;;;1.67;;
1569;SDS011;778;50.120;8.698;2022-10-22T06:31:39;1.53;;;1.30;;
1569;SDS011;778;50.120;8.698;2022-10-22T06:34:10;3.40;;;1.53;;
1569;SDS011;778;50.120;8.698;2022-10-22T06:36:40;2.47;;;1.40;;
1569;SDS011;778;50.120;8.698;2022-10-22T06:39:12;2.47;;;1.40;;
1569;SDS011;778;50.120;8.698;2022-10-22T06:41:42;2.07;;;1.90;;
1569;SDS011;778;50.120;8.698;2022-10-22T06:44:12;3.00;;;1.43;;
1569;SDS011;778;50.120;8.698;2022-10-22T06:46:42;5.83;;;1.60;;
1569;SDS011;778;50.120;8.698;2022-10-22T06:49:12;1.80;;;1.70;;
1569;SDS011;778;50.120;8.698;2022-10-22T06:51:42;1.83;;;1.63;;
1569;SDS011;778;50.120;8.698;2022-10-22T06:54:12;5.73;;;1.53;;
1569;SDS011;778;50.120;8.698;2022-10-22T06:56:40;5.00;;;2.10;;
1569;SDS011;778;50.120;8.698;2022-10-22T06:59:09;2.10;;;1.23;;
1569;SDS011;778;50.120;8.698;2022-10-22T07:01:37;2.50;;;1.83;;
1569;SDS011;778;50.120;8.698;2022-10-22T07:04:06;4.57;;;1.80;;
1569;SDS011;778;50.120;8.698;2022-10-22T07:06:37;2.50;;;1.70;;
1569;SDS011;778;50.120;8.698;2022-10-22T07:09:06;1.50;;;1.20;;
1569;SDS011;778;50.120;8.698;2022-10-22T07:11:36;5.77;;;1.73;;
1569;SDS011;778;50.120;8.698;2022-10-22T07:14:08;4.10;;;1.47;;
1569;SDS011;778;50.120;8.698;2022-10-22T07:16:37;2.93;;;1.50;;
1569;SDS011;778;50.120;8.698;2022-10-22T07:19:08;3.93;;;1.90;;
1569;SDS011;778;50.120;8.698;2022-10-22T07:21:38;1.60;;;1.47;;
1569;SDS011;778;50.120;8.698;2022-10-22T07:24:07;8.27;;;1.90;;
1569;SDS011;778;50.120;8.698;2022-10-22T07:26:36;2.60;;;1.77;;
1569;SDS011;778;50.120;8.698;2022-10-22T07:29:04;2.73;;;1.90;;
1569;SDS011;778;50.120;8.698;2022-10-22T07:31:33;3.63;;;2.10;;
1569;SDS011;778;50.120;8.698;2022-10-22T07:34:01;4.53;;;2.47;;
1569;SDS011;778;50.120;8.698;2022-10-22T07:36:33;5.30;;;2.37;;
1569;SDS011;778;50.120;8.698;2022-10-22T07:39:03;3.37;;;2.13;;
1569;SDS011;778;50.120;8.698;2022-10-22T07:41:31;1.50;;;1.27;;
1569;SDS011;778;50.120;8.698;2022-10-22T07:44:00;4.63;;;1.60;;
1569;SDS011;778;50.120;8.698;2022-10-22T07:46:28;5.17;;;1.83;;
1569;SDS011;778;50.120;8.698;2022-10-22T07:48:57;5.13;;;2.00;;
1569;SDS011;778;50.120;8.698;2022-10-22T07:51:26;3.63;;;1.50;;
1569;SDS011;778;50.120;8.698;2022-10-22T07:53:55;3.50;;;1.80;;
1569;SDS011;778;50.120;8.698;2022-10-22T07:56:24;5.00;;;2.83;;
1569;SDS011;778;50.120;8.698;2022-10-22T07:58:53;2.63;;;1.50;;
1569;SDS011;778;50.120;8.698;2022-10-22T08:01:21;2.30;;;2.10;;
1569;SDS011;778;50.120;8.698;2022-10-22T08:03:49;6.90;;;2.10;;
1569;SDS011;778;50.120;8.698;2022-10-22T08:06:18;5.03;;;2.93;;
1569;SDS011;778;50.120;8.698;2022-10-22T08:08:47;2.27;;;1.50;;
1569;SDS011;778;50.120;8.698;2022-10-22T08:11:15;3.07;;;1.67;;
1569;SDS011;778;50.120;8.698;2022-10-22T08:13:45;1.50;;;1.30;;
1569;SDS011;778;50.120;8.698;2022-10-22T08:16:13;5.87;;;1.83;;
1569;SDS011;778;50.120;8.698;2022-10-22T08:18:42;2.40;;;1.33;;
1569;SDS011;778;50.120;8.698;2022-10-22T08:21:12;3.93;;;1.60;;
1569;SDS011;778;50.120;8.698;2022-10-22T08:23:42;1.30;;;1.07;;
1569;SDS011;778;50.120;8.698;2022-10-22T08:26:10;3.10;;;1.30;;
1569;SDS011;778;50.120;8.698;2022-10-22T08:28:39;2.97;;;1.57;;
1569;SDS011;778;50.120;8.698;2022-10-22T08:31:09;2.73;;;1.30;;
1569;SDS011;778;50.120;8.698;2022-10-22T08:33:38;2.47;;;1.23;;
1569;SDS011;778;50.120;8.698;2022-10-22T08:36:07;3.40;;;1.40;;
1569;SDS011;778;50.120;8.698;2022-10-22T08:38:36;6.40;;;1.20;;
1569;SDS011;778;50.120;8.698;2022-10-22T08:41:06;2.23;;;1.17;;
1569;SDS011;778;50.120;8.698;2022-10-22T08:46:47;4.30;;;1.17;;
1569;SDS011;778;50.120;8.698;2022-10-22T08:49:37;1.73;;;1.33;;
1569;SDS011;778;50.120;8.698;2022-10-22T08:52:09;2.30;;;0.93;;
1569;SDS011;778;50.120;8.698;2022-10-22T08:54:44;0.77;;;0.70;;
1569;SDS011;778;50.120;8.698;2022-10-22T08:57:22;4.13;;;0.80;;
1569;SDS011;778;50.120;8.698;2022-10-22T09:00:18;1.00;;;0.80;;
1569;SDS011;778;50.120;8.698;2022-10-22T09:02:58;3.03;;;1.10;;
1569;SDS011;778;50.120;8.698;2022-10-22T09:05:45;2.30;;;0.90;;
1569;SDS011;778;50.120;8.698;2022-10-22T09:08:21;1.10;;;0.77;;
1569;SDS011;778;50.120;8.698;2022-10-22T09:10:50;2.70;;;0.77;;
1569;SDS011;778;50.120;8.698;2022-10-22T09:13:23;1.83;;;0.90;;
1569;SDS011;778;50.120;8.698;2022-10-22T09:15:54;2.63;;;0.70;;
1569;SDS011;778;50.120;8.698;2022-10-22T09:18:32;2.20;;;0.83;;
1569;SDS011;778;50.120;8.698;2022-10-22T09:21:11;2.10;;;0.90;;
1569;SDS011;778;50.120;8.698;2022-10-22T09:23:51;4.27;;;0.70;;
1569;SDS011;778;50.120;8.698;2022-10-22T09:26:32;0.90;;;0.80;;
1569;SDS011;778;50.120;8.698;2022-10-22T09:29:04;1.73;;;0.93;;
1569;SDS011;778;50.120;8.698;2022-10-22T09:31:33;1.47;;;0.73;;
1569;SDS011;778;50.120;8.698;2022-10-22T09:34:03;2.90;;;1.00;;
1569;SDS011;778;50.120;8.698;2022-10-22T09:36:33;2.77;;;1.07;;
1569;SDS011;778;50.120;8.698;2022-10-22T09:39:02;1.70;;;0.97;;
1569;SDS011;778;50.120;8.698;2022-10-22T09:41:30;3.67;;;1.00;;
1569;SDS011;778;50.120;8.698;2022-10-22T09:43:59;4.43;;;1.10;;
1569;SDS011;778;50.120;8.698;2022-10-22T09:46:28;2.90;;;1.00;;
1569;SDS011;778;50.120;8.698;2022-10-22T09:49:11;2.70;;;0.83;;
1569;SDS011;778;50.120;8.698;2022-10-22T09:51:51;1.30;;;1.17;;
1569;SDS011;778;50.120;8.698;2022-10-22T09:54:22;2.27;;;1.33;;
1569;SDS011;778;50.120;8.698;2022-10-22T09:56:53;2.13;;;1.43;;
1569;SDS011;778;50.120;8.698;2022-10-22T09:59:28;2.40;;;0.80;;
1569;SDS011;778;50.120;8.698;2022-10-22T10:01:59;1.10;;;0.70;;
1569;SDS011;778;50.120;8.698;2022-10-22T10:04:54;1.77;;;0.80;;
1569;SDS011;778;50.120;8.698;2022-10-22T10:07:24;4.67;;;0.70;;
1569;SDS011;778;50.120;8.698;2022-10-22T10:09:56;4.87;;;1.47;;
1569;SDS011;778;50.120;8.698;2022-10-22T10:12:28;1.77;;;0.93;;
1569;SDS011;778;50.120;8.698;2022-10-22T10:15:12;4.10;;;1.00;;
1569;SDS011;778;50.120;8.698;2022-10-22T10:17:49;2.00;;;0.97;;
1569;SDS011;778;50.120;8.698;2022-10-22T10:20:33;1.60;;;1.03;;
1569;SDS011;778;50.120;8.698;2022-10-22T10:23:09;2.00;;;1.20;;
1569;SDS011;778;50.120;8.698;2022-10-22T10:25:53;1.90;;;0.80;;
1569;SDS011;778;50.120;8.698;2022-10-22T10:28:30;2.50;;;1.30;;
1569;SDS011;778;50.120;8.698;2022-10-22T10:31:25;1.27;;;0.60;;
1569;SDS011;778;50.120;8.698;2022-10-22T10:34:07;1.80;;;0.77;;
1569;SDS011;778;50.120;8.698;2022-10-22T10:36:53;3.17;;;0.57;;
1569;SDS011;778;50.120;8.698;2022-10-22T10:39:33;2.57;;;1.00;;
1569;SDS011;778;50.120;8.698;2022-10-22T10:42:14;3.20;;;0.87;;
1569;SDS011;778;50.120;8.698;2022-10-22T10:44:54;2.70;;;1.00;;
1569;SDS011;778;50.120;8.698;2022-10-22T10:47:37;1.50;;;0.73;;
1569;SDS011;778;50.120;8.698;2022-10-22T10:50:37;2.83;;;1.10;;
1569;SDS011;778;50.120;8.698;2022-10-22T10:53:20;2.23;;;1.30;;
1569;SDS011;778;50.120;8.698;2022-10-22T10:56:04;1.80;;;1.10;;
1569;SDS011;778;50.120;8.698;2022-10-22T10:58:48;0.93;;;0.83;;
1569;SDS011;778;50.120;8.698;2022-10-22T11:01:35;2.10;;;1.20;;
1569;SDS011;778;50.120;8.698;2022-10-22T11:04:20;2.70;;;1.27;;
1569;SDS011;778;50.120;8.698;2022-10-22T11:07:10;1.53;;;0.70;;
1569;SDS011;778;50.120;8.698;2022-10-22T11:10:02;1.47;;;0.83;;
1569;SDS011;778;50.120;8.698;2022-10-22T11:12:37;2.60;;;1.20;;
1569;SDS011;778;50.120;8.698;2022-10-22T11:15:13;3.13;;;0.90;;
1569;SDS011;778;50.120;8.698;2022-10-22T11:17:54;5.40;;;1.80;;
1569;SDS011;778;50.120;8.698;2022-10-22T11:20:32;2.97;;;1.60;;
1569;SDS011;778;50.120;8.698;2022-10-22T11:23:12;8.87;;;1.73;;
1569;SDS011;778;50.120;8.698;2022-10-22T11:25:48;3.17;;;1.60;;
1569;SDS011;778;50.120;8.698;2022-10-22T11:28:19;5.30;;;1.80;;
1569;SDS011;778;50.120;8.698;2022-10-22T11:30:56;3.23;;;1.17;;
1569;SDS011;778;50.120;8.698;2022-10-22T11:33:32;3.30;;;1.40;;
1569;SDS011;778;50.120;8.698;2022-10-22T11:36:11;2.07;;;1.00;;
1569;SDS011;778;50.120;8.698;2022-10-22T11:38:41;3.93;;;1.90;;
1569;SDS011;778;50.120;8.698;2022-10-22T11:41:12;8.20;;;2.23;;
1569;SDS011;778;50.120;8.698;2022-10-22T11:43:57;6.73;;;1.70;;
1569;SDS011;778;50.120;8.698;2022-10-22T11:46:39;3.10;;;1.30;;
1569;SDS011;778;50.120;8.698;2022-10-22T11:49:21;2.27;;;1.40;;
1569;SDS011;778;50.120;8.698;2022-10-22T11:52:04;2.60;;;1.93;;
1569;SDS011;778;50.120;8.698;2022-10-22T11:54:52;2.97;;;1.47;;
1569;SDS011;778;50.120;8.698;2022-10-22T11:57:28;2.97;;;1.50;;
